HJD weather

Interpol México Heliport
Miguel Hidalgo, Distrito Federal, Mexico

Public forecast

Using degrees Celsius for public forecast. Weather courtesy of forecast.io.

METAR (pilot weather report)

Closest report is Licenciado Benito Juarez International Airport, 8.1 nm (15.0 km) E. Retrieved 2019/06/16 03:20 UTC (0 seconds ago):

MMMX 160320Z 11010KT 6SM SCT020CB BKN080 BKN200 18/13 A3030 NOSIG RMK 8/963 HZY TSE04 RAE15 FRQ LTGIC SW OCNL DROPS

TAF (pilot weather forecast)

Forecast is more than 12 hours old.

Closest forecast is Licenciado Benito Juarez International Airport, 8.1 nm (15.0 km) E. Retrieved 2019/06/15 00:08 UTC (1 day ago):

TAF MMMX 152304Z 1600/1706 02010KT 6SM HZ SCT020 BKN200 TX26/1621Z TN15/1612Z TEMPO 1600/1604 6SM TSRA BKN020CB FM160600 03005KT 6SM HZ SCT020 SCT080 BKN200 FM161800 03010KT P6SM SCT025 BKN200 TEMPO 1623/1703 5SM TSRA BKN020CB